sensor_id;sensor_type;location;lat;lon;timestamp;P1;durP1;ratioP1;P2;durP2;ratioP2
54539;SDS011;40438;52.992;18.604;2022-09-20T00:01:10;2.60;;;1.60;;
54539;SDS011;40438;52.992;18.604;2022-09-20T00:03:37;2.88;;;1.65;;
54539;SDS011;40438;52.992;18.604;2022-09-20T00:06:05;3.28;;;1.80;;
54539;SDS011;40438;52.992;18.604;2022-09-20T00:08:38;2.97;;;1.83;;
54539;SDS011;40438;52.992;18.604;2022-09-20T00:11:05;2.17;;;1.38;;
54539;SDS011;40438;52.992;18.604;2022-09-20T00:13:32;3.10;;;1.45;;
54539;SDS011;40438;52.992;18.604;2022-09-20T00:16:03;5.30;;;1.70;;
54539;SDS011;40438;52.992;18.604;2022-09-20T00:18:29;2.88;;;1.50;;
54539;SDS011;40438;52.992;18.604;2022-09-20T00:20:55;3.67;;;1.88;;
54539;SDS011;40438;52.992;18.604;2022-09-20T00:23:21;3.80;;;1.73;;
54539;SDS011;40438;52.992;18.604;2022-09-20T00:25:54;3.15;;;1.90;;
54539;SDS011;40438;52.992;18.604;2022-09-20T00:28:20;3.47;;;1.98;;
54539;SDS011;40438;52.992;18.604;2022-09-20T00:30:46;4.50;;;2.08;;
54539;SDS011;40438;52.992;18.604;2022-09-20T00:33:12;2.83;;;1.52;;
54539;SDS011;40438;52.992;18.604;2022-09-20T00:35:38;3.78;;;2.08;;
54539;SDS011;40438;52.992;18.604;2022-09-20T00:38:07;4.20;;;2.20;;
54539;SDS011;40438;52.992;18.604;2022-09-20T00:40:33;3.55;;;2.17;;
54539;SDS011;40438;52.992;18.604;2022-09-20T00:43:00;3.83;;;2.35;;
54539;SDS011;40438;52.992;18.604;2022-09-20T00:45:26;4.93;;;2.40;;
54539;SDS011;40438;52.992;18.604;2022-09-20T00:47:54;5.05;;;2.10;;
54539;SDS011;40438;52.992;18.604;2022-09-20T00:50:25;4.35;;;2.30;;
54539;SDS011;40438;52.992;18.604;2022-09-20T00:52:57;4.05;;;2.13;;
54539;SDS011;40438;52.992;18.604;2022-09-20T00:55:27;4.85;;;2.40;;
54539;SDS011;40438;52.992;18.604;2022-09-20T00:57:54;5.00;;;2.22;;
54539;SDS011;40438;52.992;18.604;2022-09-20T01:00:21;4.90;;;2.40;;
54539;SDS011;40438;52.992;18.604;2022-09-20T01:02:48;5.82;;;2.58;;
54539;SDS011;40438;52.992;18.604;2022-09-20T01:05:18;4.10;;;2.20;;
54539;SDS011;40438;52.992;18.604;2022-09-20T01:07:44;5.10;;;2.72;;
54539;SDS011;40438;52.992;18.604;2022-09-20T01:10:12;5.82;;;2.60;;
54539;SDS011;40438;52.992;18.604;2022-09-20T01:12:38;4.35;;;2.25;;
54539;SDS011;40438;52.992;18.604;2022-09-20T01:15:07;6.80;;;2.47;;
54539;SDS011;40438;52.992;18.604;2022-09-20T01:17:36;5.53;;;2.78;;
54539;SDS011;40438;52.992;18.604;2022-09-20T01:20:08;5.43;;;2.53;;
54539;SDS011;40438;52.992;18.604;2022-09-20T01:22:40;4.97;;;2.58;;
54539;SDS011;40438;52.992;18.604;2022-09-20T01:25:14;3.05;;;2.10;;
54539;SDS011;40438;52.992;18.604;2022-09-20T01:27:44;6.85;;;3.13;;
54539;SDS011;40438;52.992;18.604;2022-09-20T01:30:12;4.68;;;2.40;;
54539;SDS011;40438;52.992;18.604;2022-09-20T01:32:47;6.05;;;2.90;;
54539;SDS011;40438;52.992;18.604;2022-09-20T01:35:33;8.98;;;2.15;;
54539;SDS011;40438;52.992;18.604;2022-09-20T01:38:13;5.20;;;2.70;;
54539;SDS011;40438;52.992;18.604;2022-09-20T01:40:47;4.57;;;2.60;;
54539;SDS011;40438;52.992;18.604;2022-09-20T01:43:26;5.78;;;2.90;;
54539;SDS011;40438;52.992;18.604;2022-09-20T01:45:55;5.72;;;2.40;;
54539;SDS011;40438;52.992;18.604;2022-09-20T01:48:29;3.90;;;2.30;;
54539;SDS011;40438;52.992;18.604;2022-09-20T01:51:11;3.38;;;1.77;;
54539;SDS011;40438;52.992;18.604;2022-09-20T01:54:00;3.45;;;2.30;;
54539;SDS011;40438;52.992;18.604;2022-09-20T01:59:54;3.65;;;2.08;;
54539;SDS011;40438;52.992;18.604;2022-09-20T02:02:35;3.83;;;2.10;;
54539;SDS011;40438;52.992;18.604;2022-09-20T02:05:39;6.43;;;2.33;;
54539;SDS011;40438;52.992;18.604;2022-09-20T02:08:21;4.45;;;2.40;;
54539;SDS011;40438;52.992;18.604;2022-09-20T02:11:12;3.85;;;2.47;;
54539;SDS011;40438;52.992;18.604;2022-09-20T02:16:32;4.93;;;2.33;;
54539;SDS011;40438;52.992;18.604;2022-09-20T02:22:03;5.22;;;2.70;;
54539;SDS011;40438;52.992;18.604;2022-09-20T02:24:44;4.18;;;1.95;;
54539;SDS011;40438;52.992;18.604;2022-09-20T02:27:21;3.60;;;2.10;;
54539;SDS011;40438;52.992;18.604;2022-09-20T02:29:55;4.40;;;2.15;;
54539;SDS011;40438;52.992;18.604;2022-09-20T02:32:34;4.70;;;2.28;;
54539;SDS011;40438;52.992;18.604;2022-09-20T02:35:17;4.68;;;2.45;;
54539;SDS011;40438;52.992;18.604;2022-09-20T02:40:49;3.60;;;1.75;;
54539;SDS011;40438;52.992;18.604;2022-09-20T02:43:32;4.78;;;2.30;;
54539;SDS011;40438;52.992;18.604;2022-09-20T02:46:07;4.28;;;1.88;;
54539;SDS011;40438;52.992;18.604;2022-09-20T02:48:41;6.85;;;2.40;;
54539;SDS011;40438;52.992;18.604;2022-09-20T02:51:13;3.58;;;1.98;;
54539;SDS011;40438;52.992;18.604;2022-09-20T02:53:47;3.92;;;1.90;;
54539;SDS011;40438;52.992;18.604;2022-09-20T02:56:24;3.42;;;2.20;;
54539;SDS011;40438;52.992;18.604;2022-09-20T02:59:00;4.47;;;2.10;;
54539;SDS011;40438;52.992;18.604;2022-09-20T03:01:31;2.83;;;1.98;;
54539;SDS011;40438;52.992;18.604;2022-09-20T03:04:13;3.00;;;1.90;;
54539;SDS011;40438;52.992;18.604;2022-09-20T03:06:49;6.82;;;1.90;;
54539;SDS011;40438;52.992;18.604;2022-09-20T03:09:22;5.03;;;1.75;;
54539;SDS011;40438;52.992;18.604;2022-09-20T03:11:58;2.90;;;2.25;;
54539;SDS011;40438;52.992;18.604;2022-09-20T03:14:32;5.88;;;1.98;;
54539;SDS011;40438;52.992;18.604;2022-09-20T03:17:04;5.82;;;2.15;;
54539;SDS011;40438;52.992;18.604;2022-09-20T03:19:45;4.05;;;2.30;;
54539;SDS011;40438;52.992;18.604;2022-09-20T03:22:25;4.18;;;1.88;;
54539;SDS011;40438;52.992;18.604;2022-09-20T03:25:08;3.65;;;2.22;;
54539;SDS011;40438;52.992;18.604;2022-09-20T03:27:57;3.30;;;1.77;;
54539;SDS011;40438;52.992;18.604;2022-09-20T03:30:40;3.03;;;1.92;;
54539;SDS011;40438;52.992;18.604;2022-09-20T03:33:17;2.80;;;1.80;;
54539;SDS011;40438;52.992;18.604;2022-09-20T03:35:55;2.60;;;1.70;;
54539;SDS011;40438;52.992;18.604;2022-09-20T03:38:36;2.60;;;1.50;;
54539;SDS011;40438;52.992;18.604;2022-09-20T03:41:19;5.80;;;2.25;;
54539;SDS011;40438;52.992;18.604;2022-09-20T03:44:07;5.65;;;1.77;;
54539;SDS011;40438;52.992;18.604;2022-09-20T03:46:45;3.92;;;1.98;;
54539;SDS011;40438;52.992;18.604;2022-09-20T03:52:26;4.05;;;2.00;;
54539;SDS011;40438;52.992;18.604;2022-09-20T03:55:18;4.45;;;1.80;;
54539;SDS011;40438;52.992;18.604;2022-09-20T03:58:00;3.22;;;1.58;;
54539;SDS011;40438;52.992;18.604;2022-09-20T04:00:44;5.40;;;2.35;;
54539;SDS011;40438;52.992;18.604;2022-09-20T04:03:22;4.78;;;1.95;;
54539;SDS011;40438;52.992;18.604;2022-09-20T04:06:08;3.08;;;1.90;;
54539;SDS011;40438;52.992;18.604;2022-09-20T04:08:59;1.70;;;1.30;;
54539;SDS011;40438;52.992;18.604;2022-09-20T04:11:52;2.75;;;1.67;;
54539;SDS011;40438;52.992;18.604;2022-09-20T04:14:28;12.38;;;2.00;;
54539;SDS011;40438;52.992;18.604;2022-09-20T04:17:03;3.65;;;2.03;;
54539;SDS011;40438;52.992;18.604;2022-09-20T04:19:37;4.43;;;1.80;;
54539;SDS011;40438;52.992;18.604;2022-09-20T04:22:08;5.30;;;1.50;;
54539;SDS011;40438;52.992;18.604;2022-09-20T04:24:37;2.85;;;1.45;;
54539;SDS011;40438;52.992;18.604;2022-09-20T04:27:11;3.25;;;1.90;;
54539;SDS011;40438;52.992;18.604;2022-09-20T04:29:42;6.57;;;2.20;;
54539;SDS011;40438;52.992;18.604;2022-09-20T04:32:13;7.68;;;2.30;;
54539;SDS011;40438;52.992;18.604;2022-09-20T04:34:45;5.15;;;2.22;;
54539;SDS011;40438;52.992;18.604;2022-09-20T04:37:18;4.45;;;1.95;;
54539;SDS011;40438;52.992;18.604;2022-09-20T04:39:54;3.85;;;1.95;;
54539;SDS011;40438;52.992;18.604;2022-09-20T04:45:59;3.78;;;1.75;;
54539;SDS011;40438;52.992;18.604;2022-09-20T04:48:50;4.85;;;1.65;;
54539;SDS011;40438;52.992;18.604;2022-09-20T04:51:41;3.00;;;1.65;;
54539;SDS011;40438;52.992;18.604;2022-09-20T04:54:38;2.95;;;1.50;;
54539;SDS011;40438;52.992;18.604;2022-09-20T04:57:31;2.88;;;1.95;;
54539;SDS011;40438;52.992;18.604;2022-09-20T05:00:19;3.15;;;2.00;;
54539;SDS011;40438;52.992;18.604;2022-09-20T05:06:05;4.82;;;2.22;;
54539;SDS011;40438;52.992;18.604;2022-09-20T05:11:57;6.30;;;1.92;;
54539;SDS011;40438;52.992;18.604;2022-09-20T05:14:55;4.85;;;2.08;;
54539;SDS011;40438;52.992;18.604;2022-09-20T05:17:35;4.40;;;2.25;;
54539;SDS011;40438;52.992;18.604;2022-09-20T05:20:22;4.93;;;2.20;;
54539;SDS011;40438;52.992;18.604;2022-09-20T05:23:13;4.82;;;2.22;;
54539;SDS011;40438;52.992;18.604;2022-09-20T05:26:02;4.90;;;2.20;;
54539;SDS011;40438;52.992;18.604;2022-09-20T05:28:37;6.28;;;2.63;;
54539;SDS011;40438;52.992;18.604;2022-09-20T05:31:14;12.90;;;2.75;;
54539;SDS011;40438;52.992;18.604;2022-09-20T05:33:50;6.53;;;2.78;;
54539;SDS011;40438;52.992;18.604;2022-09-20T05:36:23;7.97;;;3.33;;
54539;SDS011;40438;52.992;18.604;2022-09-20T05:38:57;5.47;;;2.50;;
54539;SDS011;40438;52.992;18.604;2022-09-20T05:41:30;4.65;;;2.65;;
54539;SDS011;40438;52.992;18.604;2022-09-20T05:44:07;4.35;;;2.30;;
54539;SDS011;40438;52.992;18.604;2022-09-20T05:46:52;6.95;;;2.25;;
54539;SDS011;40438;52.992;18.604;2022-09-20T05:49:28;6.50;;;2.70;;
54539;SDS011;40438;52.992;18.604;2022-09-20T05:52:14;6.60;;;2.33;;
54539;SDS011;40438;52.992;18.604;2022-09-20T05:54:58;5.70;;;2.30;;
54539;SDS011;40438;52.992;18.604;2022-09-20T05:57:48;5.40;;;2.58;;
54539;SDS011;40438;52.992;18.604;2022-09-20T06:00:24;3.63;;;2.10;;
54539;SDS011;40438;52.992;18.604;2022-09-20T06:02:57;3.05;;;2.08;;
54539;SDS011;40438;52.992;18.604;2022-09-20T06:05:36;4.95;;;2.08;;
54539;SDS011;40438;52.992;18.604;2022-09-20T06:08:15;3.63;;;2.17;;
54539;SDS011;40438;52.992;18.604;2022-09-20T06:11:00;3.50;;;2.20;;
54539;SDS011;40438;52.992;18.604;2022-09-20T06:13:44;5.35;;;2.78;;
54539;SDS011;40438;52.992;18.604;2022-09-20T06:16:23;4.45;;;2.55;;
54539;SDS011;40438;52.992;18.604;2022-09-20T06:18:59;3.70;;;2.30;;
54539;SDS011;40438;52.992;18.604;2022-09-20T06:21:32;5.65;;;2.80;;
54539;SDS011;40438;52.992;18.604;2022-09-20T06:24:08;6.43;;;3.17;;
54539;SDS011;40438;52.992;18.604;2022-09-20T06:26:43;5.35;;;2.70;;
54539;SDS011;40438;52.992;18.604;2022-09-20T06:29:10;7.60;;;3.13;;
54539;SDS011;40438;52.992;18.604;2022-09-20T06:31:38;5.32;;;2.55;;
54539;SDS011;40438;52.992;18.604;2022-09-20T06:34:06;5.50;;;2.97;;
54539;SDS011;40438;52.992;18.604;2022-09-20T06:36:35;6.93;;;3.55;;
54539;SDS011;40438;52.992;18.604;2022-09-20T06:39:06;6.20;;;3.67;;
54539;SDS011;40438;52.992;18.604;2022-09-20T06:41:39;6.13;;;3.22;;
54539;SDS011;40438;52.992;18.604;2022-09-20T06:44:09;5.88;;;3.65;;
54539;SDS011;40438;52.992;18.604;2022-09-20T06:46:35;6.85;;;4.13;;
54539;SDS011;40438;52.992;18.604;2022-09-20T06:49:01;6.72;;;3.83;;
54539;SDS011;40438;52.992;18.604;2022-09-20T06:51:35;7.93;;;3.58;;
54539;SDS011;40438;52.992;18.604;2022-09-20T06:54:01;5.95;;;3.33;;
54539;SDS011;40438;52.992;18.604;2022-09-20T06:56:29;8.05;;;4.30;;
54539;SDS011;40438;52.992;18.604;2022-09-20T06:58:57;9.43;;;3.80;;
54539;SDS011;40438;52.992;18.604;2022-09-20T07:01:23;8.52;;;3.75;;
54539;SDS011;40438;52.992;18.604;2022-09-20T07:03:48;5.28;;;3.47;;
54539;SDS011;40438;52.992;18.604;2022-09-20T07:06:14;9.23;;;4.40;;
54539;SDS011;40438;52.992;18.604;2022-09-20T07:08:41;8.32;;;4.03;;
54539;SDS011;40438;52.992;18.604;2022-09-20T07:11:08;7.78;;;3.67;;
54539;SDS011;40438;52.992;18.604;2022-09-20T07:13:36;6.50;;;3.80;;
54539;SDS011;40438;52.992;18.604;2022-09-20T07:16:02;7.28;;;3.72;;
54539;SDS011;40438;52.992;18.604;2022-09-20T07:18:29;5.63;;;3.25;;
54539;SDS011;40438;52.992;18.604;2022-09-20T07:20:55;8.63;;;3.50;;
54539;SDS011;40438;52.992;18.604;2022-09-20T07:23:21;8.00;;;3.78;;
54539;SDS011;40438;52.992;18.604;2022-09-20T07:25:48;12.38;;;4.57;;
54539;SDS011;40438;52.992;18.604;2022-09-20T07:28:14;8.25;;;4.25;;
54539;SDS011;40438;52.992;18.604;2022-09-20T07:30:40;7.15;;;3.60;;
54539;SDS011;40438;52.992;18.604;2022-09-20T07:33:05;8.80;;;3.80;;
54539;SDS011;40438;52.992;18.604;2022-09-20T07:35:31;7.80;;;3.42;;
54539;SDS011;40438;52.992;18.604;2022-09-20T07:37:57;5.47;;;3.20;;
54539;SDS011;40438;52.992;18.604;2022-09-20T07:40:23;8.25;;;4.43;;
54539;SDS011;40438;52.992;18.604;2022-09-20T07:42:50;6.45;;;3.47;;
54539;SDS011;40438;52.992;18.604;2022-09-20T07:45:16;7.18;;;3.80;;
54539;SDS011;40438;52.992;18.604;2022-09-20T07:47:41;7.15;;;3.88;;
54539;SDS011;40438;52.992;18.604;2022-09-20T07:50:07;8.65;;;3.95;;
54539;SDS011;40438;52.992;18.604;2022-09-20T07:52:33;7.50;;;3.85;;
54539;SDS011;40438;52.992;18.604;2022-09-20T07:54:59;6.43;;;3.47;;
54539;SDS011;40438;52.992;18.604;2022-09-20T07:57:24;4.85;;;3.38;;
54539;SDS011;40438;52.992;18.604;2022-09-20T07:59:51;8.30;;;3.45;;
54539;SDS011;40438;52.992;18.604;2022-09-20T08:02:17;5.28;;;3.38;;
54539;SDS011;40438;52.992;18.604;2022-09-20T08:04:43;8.80;;;3.20;;
54539;SDS011;40438;52.992;18.604;2022-09-20T08:07:09;5.55;;;3.20;;
54539;SDS011;40438;52.992;18.604;2022-09-20T08:09:35;6.00;;;3.10;;
54539;SDS011;40438;52.992;18.604;2022-09-20T08:12:01;6.47;;;3.90;;
54539;SDS011;40438;52.992;18.604;2022-09-20T08:14:27;6.18;;;3.67;;
54539;SDS011;40438;52.992;18.604;2022-09-20T08:16:54;4.47;;;3.00;;
54539;SDS011;40438;52.992;18.604;2022-09-20T08:19:20;6.28;;;3.50;;
54539;SDS011;40438;52.992;18.604;2022-09-20T08:21:47;5.65;;;3.90;;
54539;SDS011;40438;52.992;18.604;2022-09-20T08:24:14;7.68;;;3.80;;
54539;SDS011;40438;52.992;18.604;2022-09-20T08:26:40;6.07;;;3.88;;
54539;SDS011;40438;52.992;18.604;2022-09-20T08:29:06;4.68;;;3.00;;
54539;SDS011;40438;52.992;18.604;2022-09-20T08:31:32;4.53;;;2.90;;
54539;SDS011;40438;52.992;18.604;2022-09-20T08:34:02;6.47;;;3.35;;
54539;SDS011;40438;52.992;18.604;2022-09-20T08:36:30;6.60;;;2.55;;
54539;SDS011;40438;52.992;18.604;2022-09-20T08:38:56;3.50;;;2.50;;
54539;SDS011;40438;52.992;18.604;2022-09-20T08:41:23;5.35;;;2.38;;
54539;SDS011;40438;52.992;18.604;2022-09-20T08:43:53;3.65;;;2.25;;
54539;SDS011;40438;52.992;18.604;2022-09-20T08:46:23;4.50;;;2.70;;
54539;SDS011;40438;52.992;18.604;2022-09-20T08:48:51;4.95;;;2.10;;
54539;SDS011;40438;52.992;18.604;2022-09-20T08:51:19;6.30;;;1.83;;
54539;SDS011;40438;52.992;18.604;2022-09-20T08:53:47;3.03;;;2.30;;
54539;SDS011;40438;52.992;18.604;2022-09-20T08:56:15;2.90;;;1.70;;
54539;SDS011;40438;52.992;18.604;2022-09-20T08:58:41;4.32;;;1.95;;
54539;SDS011;40438;52.992;18.604;2022-09-20T09:01:07;2.75;;;1.60;;
54539;SDS011;40438;52.992;18.604;2022-09-20T09:03:38;2.55;;;1.75;;
54539;SDS011;40438;52.992;18.604;2022-09-20T09:06:04;2.13;;;1.55;;
54539;SDS011;40438;52.992;18.604;2022-09-20T09:08:34;4.70;;;1.75;;
54539;SDS011;40438;52.992;18.604;2022-09-20T09:13:30;5.10;;;1.67;;
54539;SDS011;40438;52.992;18.604;2022-09-20T09:16:05;2.85;;;1.42;;
54539;SDS011;40438;52.992;18.604;2022-09-20T09:18:34;4.15;;;1.15;;
54539;SDS011;40438;52.992;18.604;2022-09-20T09:21:02;3.35;;;1.23;;
54539;SDS011;40438;52.992;18.604;2022-09-20T09:23:31;2.25;;;0.88;;
54539;SDS011;40438;52.992;18.604;2022-09-20T09:26:04;3.65;;;1.30;;
54539;SDS011;40438;52.992;18.604;2022-09-20T09:28:38;33.55;;;2.80;;
54539;SDS011;40438;52.992;18.604;2022-09-20T09:31:19;42.22;;;4.78;;
54539;SDS011;40438;52.992;18.604;2022-09-20T09:33:47;8.32;;;1.35;;
54539;SDS011;40438;52.992;18.604;2022-09-20T09:36:14;4.85;;;0.70;;
54539;SDS011;40438;52.992;18.604;2022-09-20T09:38:43;3.15;;;1.10;;
54539;SDS011;40438;52.992;18.604;2022-09-20T09:41:19;8.90;;;1.95;;
54539;SDS011;40438;52.992;18.604;2022-09-20T09:43:50;3.15;;;0.82;;
54539;SDS011;40438;52.992;18.604;2022-09-20T09:46:22;1.63;;;0.50;;
54539;SDS011;40438;52.992;18.604;2022-09-20T09:49:02;2.55;;;0.50;;
54539;SDS011;40438;52.992;18.604;2022-09-20T09:51:30;1.80;;;0.40;;
54539;SDS011;40438;52.992;18.604;2022-09-20T09:53:57;0.45;;;0.22;;
54539;SDS011;40438;52.992;18.604;2022-09-20T09:56:29;3.30;;;0.30;;
54539;SDS011;40438;52.992;18.604;2022-09-20T09:59:19;1.13;;;0.50;;
54539;SDS011;40438;52.992;18.604;2022-09-20T10:01:58;0.50;;;0.40;;
54539;SDS011;40438;52.992;18.604;2022-09-20T10:04:37;0.47;;;0.47;;
54539;SDS011;40438;52.992;18.604;2022-09-20T10:07:13;0.40;;;0.22;;
54539;SDS011;40438;52.992;18.604;2022-09-20T10:09:50;0.50;;;0.35;;
54539;SDS011;40438;52.992;18.604;2022-09-20T10:12:29;0.43;;;0.30;;
54539;SDS011;40438;52.992;18.604;2022-09-20T10:15:14;1.10;;;0.55;;
54539;SDS011;40438;52.992;18.604;2022-09-20T10:17:50;2.05;;;0.50;;
54539;SDS011;40438;52.992;18.604;2022-09-20T10:20:28;0.90;;;0.35;;
54539;SDS011;40438;52.992;18.604;2022-09-20T10:23:04;0.30;;;0.30;;
54539;SDS011;40438;52.992;18.604;2022-09-20T10:25:42;0.38;;;0.30;;
54539;SDS011;40438;52.992;18.604;2022-09-20T10:28:17;0.22;;;0.22;;
54539;SDS011;40438;52.992;18.604;2022-09-20T10:30:58;3.42;;;0.25;;
54539;SDS011;40438;52.992;18.604;2022-09-20T10:33:34;0.40;;;0.28;;
54539;SDS011;40438;52.992;18.604;2022-09-20T10:36:15;0.40;;;0.30;;
54539;SDS011;40438;52.992;18.604;2022-09-20T10:38:49;0.70;;;0.40;;
54539;SDS011;40438;52.992;18.604;2022-09-20T10:41:26;2.72;;;0.38;;
54539;SDS011;40438;52.992;18.604;2022-09-20T10:44:11;1.00;;;0.22;;
54539;SDS011;40438;52.992;18.604;2022-09-20T10:46:47;0.43;;;0.20;;
54539;SDS011;40438;52.992;18.604;2022-09-20T10:49:20;0.60;;;0.30;;
54539;SDS011;40438;52.992;18.604;2022-09-20T10:52:03;0.45;;;0.30;;
54539;SDS011;40438;52.992;18.604;2022-09-20T10:54:41;0.20;;;0.20;;
54539;SDS011;40438;52.992;18.604;2022-09-20T10:57:22;0.77;;;0.40;;
54539;SDS011;40438;52.992;18.604;2022-09-20T11:00:04;1.10;;;0.70;;
54539;SDS011;40438;52.992;18.604;2022-09-20T11:02:44;0.80;;;0.60;;
54539;SDS011;40438;52.992;18.604;2022-09-20T11:05:28;0.98;;;0.35;;
54539;SDS011;40438;52.992;18.604;2022-09-20T11:08:06;0.73;;;0.30;;
54539;SDS011;40438;52.992;18.604;2022-09-20T11:10:37;0.80;;;0.20;;
54539;SDS011;40438;52.992;18.604;2022-09-20T11:13:12;1.25;;;0.30;;
54539;SDS011;40438;52.992;18.604;2022-09-20T11:15:45;0.35;;;0.17;;
54539;SDS011;40438;52.992;18.604;2022-09-20T11:18:16;0.20;;;0.20;;
54539;SDS011;40438;52.992;18.604;2022-09-20T11:20:48;0.85;;;0.40;;
54539;SDS011;40438;52.992;18.604;2022-09-20T11:23:21;0.20;;;0.20;;
54539;SDS011;40438;52.992;18.604;2022-09-20T11:25:52;0.55;;;0.30;;
54539;SDS011;40438;52.992;18.604;2022-09-20T11:28:23;0.38;;;0.20;;
54539;SDS011;40438;52.992;18.604;2022-09-20T11:30:54;0.47;;;0.30;;
54539;SDS011;40438;52.992;18.604;2022-09-20T11:33:25;1.02;;;0.30;;
54539;SDS011;40438;52.992;18.604;2022-09-20T11:35:57;0.40;;;0.20;;
54539;SDS011;40438;52.992;18.604;2022-09-20T11:38:25;0.80;;;0.30;;
54539;SDS011;40438;52.992;18.604;2022-09-20T11:43:28;0.17;;;0.17;;
54539;SDS011;40438;52.992;18.604;2022-09-20T11:45:56;3.53;;;0.77;;
54539;SDS011;40438;52.992;18.604;2022-09-20T11:48:25;3.85;;;0.90;;
54539;SDS011;40438;52.992;18.604;2022-09-20T11:51:11;0.40;;;0.30;;
54539;SDS011;40438;52.992;18.604;2022-09-20T11:54:04;2.10;;;0.43;;
54539;SDS011;40438;52.992;18.604;2022-09-20T11:56:40;0.30;;;0.17;;
54539;SDS011;40438;52.992;18.604;2022-09-20T11:59:21;0.68;;;0.20;;
54539;SDS011;40438;52.992;18.604;2022-09-20T12:01:53;1.50;;;0.43;;
54539;SDS011;40438;52.992;18.604;2022-09-20T12:04:21;0.20;;;0.20;;
54539;SDS011;40438;52.992;18.604;2022-09-20T12:06:55;0.20;;;0.10;;
54539;SDS011;40438;52.992;18.604;2022-09-20T12:09:25;0.20;;;0.10;;
54539;SDS011;40438;52.992;18.604;2022-09-20T12:11:55;0.10;;;0.10;;
54539;SDS011;40438;52.992;18.604;2022-09-20T12:14:24;0.40;;;0.28;;
54539;SDS011;40438;52.992;18.604;2022-09-20T12:16:51;0.10;;;0.10;;
54539;SDS011;40438;52.992;18.604;2022-09-20T12:27:54;0.50;;;0.20;;
54539;SDS011;40438;52.992;18.604;2022-09-20T12:30:22;0.10;;;0.10;;
54539;SDS011;40438;52.992;18.604;2022-09-20T12:32:50;0.32;;;0.17;;
54539;SDS011;40438;52.992;18.604;2022-09-20T12:38:32;1.20;;;0.23;;
54539;SDS011;40438;52.992;18.604;2022-09-20T12:41:02;0.30;;;0.20;;
54539;SDS011;40438;52.992;18.604;2022-09-20T12:43:31;0.20;;;0.20;;
54539;SDS011;40438;52.992;18.604;2022-09-20T12:46:00;0.30;;;0.20;;
54539;SDS011;40438;52.992;18.604;2022-09-20T12:48:26;3.50;;;0.65;;
54539;SDS011;40438;52.992;18.604;2022-09-20T12:53:41;2.55;;;0.30;;
54539;SDS011;40438;52.992;18.604;2022-09-20T12:56:12;0.20;;;0.10;;
54539;SDS011;40438;52.992;18.604;2022-09-20T12:58:47;0.30;;;0.20;;
54539;SDS011;40438;52.992;18.604;2022-09-20T13:03:59;0.50;;;0.40;;
54539;SDS011;40438;52.992;18.604;2022-09-20T13:09:56;1.30;;;0.38;;
54539;SDS011;40438;52.992;18.604;2022-09-20T13:12:22;0.38;;;0.17;;
54539;SDS011;40438;52.992;18.604;2022-09-20T13:14:48;0.45;;;0.20;;
54539;SDS011;40438;52.992;18.604;2022-09-20T13:17:17;0.75;;;0.28;;
54539;SDS011;40438;52.992;18.604;2022-09-20T13:19:49;0.40;;;0.20;;
54539;SDS011;40438;52.992;18.604;2022-09-20T13:22:18;2.38;;;0.30;;
54539;SDS011;40438;52.992;18.604;2022-09-20T13:24:47;1.48;;;0.20;;
54539;SDS011;40438;52.992;18.604;2022-09-20T13:27:16;0.40;;;0.25;;
54539;SDS011;40438;52.992;18.604;2022-09-20T13:29:46;0.88;;;0.20;;
54539;SDS011;40438;52.992;18.604;2022-09-20T13:32:16;0.30;;;0.30;;
54539;SDS011;40438;52.992;18.604;2022-09-20T13:34:44;0.32;;;0.30;;
54539;SDS011;40438;52.992;18.604;2022-09-20T13:37:14;2.00;;;0.30;;
54539;SDS011;40438;52.992;18.604;2022-09-20T13:39:42;0.45;;;0.20;;
54539;SDS011;40438;52.992;18.604;2022-09-20T13:42:10;1.08;;;0.20;;
54539;SDS011;40438;52.992;18.604;2022-09-20T13:44:40;0.70;;;0.30;;
54539;SDS011;40438;52.992;18.604;2022-09-20T13:47:25;0.20;;;0.20;;
54539;SDS011;40438;52.992;18.604;2022-09-20T13:49:53;0.45;;;0.40;;
54539;SDS011;40438;52.992;18.604;2022-09-20T13:52:25;0.28;;;0.13;;
54539;SDS011;40438;52.992;18.604;2022-09-20T13:54:52;1.35;;;0.25;;
54539;SDS011;40438;52.992;18.604;2022-09-20T13:57:19;0.75;;;0.47;;
54539;SDS011;40438;52.992;18.604;2022-09-20T13:59:47;0.40;;;0.30;;
54539;SDS011;40438;52.992;18.604;2022-09-20T14:02:17;0.52;;;0.40;;
54539;SDS011;40438;52.992;18.604;2022-09-20T14:04:48;0.95;;;0.60;;
54539;SDS011;40438;52.992;18.604;2022-09-20T14:07:17;0.98;;;0.60;;
54539;SDS011;40438;52.992;18.604;2022-09-20T14:09:43;2.10;;;0.98;;
54539;SDS011;40438;52.992;18.604;2022-09-20T14:12:09;1.40;;;0.80;;
54539;SDS011;40438;52.992;18.604;2022-09-20T14:14:36;1.60;;;0.90;;
54539;SDS011;40438;52.992;18.604;2022-09-20T14:17:03;2.17;;;0.63;;
54539;SDS011;40438;52.992;18.604;2022-09-20T14:19:31;2.08;;;1.00;;
54539;SDS011;40438;52.992;18.604;2022-09-20T14:22:03;0.88;;;0.50;;
54539;SDS011;40438;52.992;18.604;2022-09-20T14:24:30;1.17;;;0.50;;
54539;SDS011;40438;52.992;18.604;2022-09-20T14:27:01;2.33;;;0.52;;
54539;SDS011;40438;52.992;18.604;2022-09-20T14:32:03;2.22;;;0.98;;
54539;SDS011;40438;52.992;18.604;2022-09-20T14:34:34;1.87;;;0.70;;
54539;SDS011;40438;52.992;18.604;2022-09-20T14:37:04;1.30;;;0.60;;
54539;SDS011;40438;52.992;18.604;2022-09-20T14:39:33;0.85;;;0.57;;
54539;SDS011;40438;52.992;18.604;2022-09-20T14:42:14;3.40;;;0.60;;
54539;SDS011;40438;52.992;18.604;2022-09-20T14:44:43;1.15;;;0.57;;
54539;SDS011;40438;52.992;18.604;2022-09-20T14:47:12;1.52;;;0.98;;
54539;SDS011;40438;52.992;18.604;2022-09-20T14:49:39;1.60;;;0.70;;
54539;SDS011;40438;52.992;18.604;2022-09-20T14:55:14;1.45;;;0.85;;
54539;SDS011;40438;52.992;18.604;2022-09-20T14:57:43;3.00;;;1.73;;
54539;SDS011;40438;52.992;18.604;2022-09-20T15:00:10;3.60;;;1.15;;
54539;SDS011;40438;52.992;18.604;2022-09-20T15:02:38;5.20;;;1.50;;
54539;SDS011;40438;52.992;18.604;2022-09-20T15:05:15;10.20;;;2.30;;
54539;SDS011;40438;52.992;18.604;2022-09-20T15:07:44;18.27;;;4.32;;
54539;SDS011;40438;52.992;18.604;2022-09-20T15:10:10;13.88;;;3.72;;
54539;SDS011;40438;52.992;18.604;2022-09-20T15:12:36;4.60;;;1.48;;
54539;SDS011;40438;52.992;18.604;2022-09-20T15:15:02;1.63;;;0.80;;
54539;SDS011;40438;52.992;18.604;2022-09-20T15:17:28;2.20;;;0.90;;
54539;SDS011;40438;52.992;18.604;2022-09-20T15:19:54;3.80;;;1.00;;
54539;SDS011;40438;52.992;18.604;2022-09-20T15:22:20;2.65;;;1.35;;
54539;SDS011;40438;52.992;18.604;2022-09-20T15:24:47;1.33;;;0.90;;
54539;SDS011;40438;52.992;18.604;2022-09-20T15:27:13;3.17;;;1.40;;
54539;SDS011;40438;52.992;18.604;2022-09-20T15:29:38;1.85;;;1.00;;
54539;SDS011;40438;52.992;18.604;2022-09-20T15:32:04;5.10;;;1.35;;
54539;SDS011;40438;52.992;18.604;2022-09-20T15:34:31;1.27;;;1.05;;
54539;SDS011;40438;52.992;18.604;2022-09-20T15:36:56;2.58;;;0.82;;
54539;SDS011;40438;52.992;18.604;2022-09-20T15:39:22;1.55;;;1.20;;
54539;SDS011;40438;52.992;18.604;2022-09-20T15:41:51;3.10;;;0.90;;
54539;SDS011;40438;52.992;18.604;2022-09-20T15:44:17;2.38;;;1.10;;
54539;SDS011;40438;52.992;18.604;2022-09-20T15:46:43;2.13;;;1.00;;
54539;SDS011;40438;52.992;18.604;2022-09-20T15:49:09;2.92;;;1.13;;
54539;SDS011;40438;52.992;18.604;2022-09-20T15:51:36;1.40;;;0.90;;
54539;SDS011;40438;52.992;18.604;2022-09-20T15:54:03;2.05;;;1.10;;
54539;SDS011;40438;52.992;18.604;2022-09-20T15:56:30;1.70;;;1.02;;
54539;SDS011;40438;52.992;18.604;2022-09-20T15:58:59;2.00;;;0.88;;
54539;SDS011;40438;52.992;18.604;2022-09-20T16:01:26;2.30;;;1.20;;